sensor_id;sensor_type;location;lat;lon;timestamp;P1;durP1;ratioP1;P2;durP2;ratioP2
17696;SDS011;8967;47.984;7.842;2023-02-21T00:01:58;5.90;;;1.40;;
17696;SDS011;8967;47.984;7.842;2023-02-21T00:04:42;2.33;;;1.70;;
17696;SDS011;8967;47.984;7.842;2023-02-21T00:07:28;3.33;;;1.20;;
17696;SDS011;8967;47.984;7.842;2023-02-21T00:10:13;3.20;;;1.57;;
17696;SDS011;8967;47.984;7.842;2023-02-21T00:12:59;3.30;;;1.87;;
17696;SDS011;8967;47.984;7.842;2023-02-21T00:15:43;2.80;;;1.90;;
17696;SDS011;8967;47.984;7.842;2023-02-21T00:18:28;3.30;;;1.60;;
17696;SDS011;8967;47.984;7.842;2023-02-21T00:21:16;2.90;;;2.23;;
17696;SDS011;8967;47.984;7.842;2023-02-21T00:24:02;2.93;;;2.10;;
17696;SDS011;8967;47.984;7.842;2023-02-21T00:26:47;2.13;;;1.60;;
17696;SDS011;8967;47.984;7.842;2023-02-21T00:29:31;2.90;;;1.60;;
17696;SDS011;8967;47.984;7.842;2023-02-21T00:32:15;3.70;;;2.00;;
17696;SDS011;8967;47.984;7.842;2023-02-21T00:35:00;3.37;;;1.80;;
17696;SDS011;8967;47.984;7.842;2023-02-21T00:37:47;2.53;;;1.70;;
17696;SDS011;8967;47.984;7.842;2023-02-21T00:40:33;2.90;;;1.60;;
17696;SDS011;8967;47.984;7.842;2023-02-21T00:43:26;4.78;;;2.00;;
17696;SDS011;8967;47.984;7.842;2023-02-21T00:46:11;4.37;;;1.73;;
17696;SDS011;8967;47.984;7.842;2023-02-21T00:48:55;5.47;;;1.67;;
17696;SDS011;8967;47.984;7.842;2023-02-21T00:51:39;3.85;;;2.10;;
17696;SDS011;8967;47.984;7.842;2023-02-21T00:54:24;3.92;;;1.80;;
17696;SDS011;8967;47.984;7.842;2023-02-21T00:57:10;3.58;;;1.90;;
17696;SDS011;8967;47.984;7.842;2023-02-21T00:59:54;3.43;;;1.80;;
17696;SDS011;8967;47.984;7.842;2023-02-21T01:02:39;2.57;;;2.07;;
17696;SDS011;8967;47.984;7.842;2023-02-21T01:05:24;2.07;;;1.50;;
17696;SDS011;8967;47.984;7.842;2023-02-21T01:08:11;2.63;;;1.50;;
17696;SDS011;8967;47.984;7.842;2023-02-21T01:10:56;3.83;;;1.60;;
17696;SDS011;8967;47.984;7.842;2023-02-21T01:13:43;1.97;;;1.50;;
17696;SDS011;8967;47.984;7.842;2023-02-21T01:16:31;4.13;;;1.63;;
17696;SDS011;8967;47.984;7.842;2023-02-21T01:19:16;4.67;;;1.60;;
17696;SDS011;8967;47.984;7.842;2023-02-21T01:22:01;2.90;;;1.40;;
17696;SDS011;8967;47.984;7.842;2023-02-21T01:24:47;2.40;;;1.40;;
17696;SDS011;8967;47.984;7.842;2023-02-21T01:27:32;3.10;;;1.70;;
17696;SDS011;8967;47.984;7.842;2023-02-21T01:30:18;1.73;;;1.20;;
17696;SDS011;8967;47.984;7.842;2023-02-21T01:33:02;2.87;;;1.50;;
17696;SDS011;8967;47.984;7.842;2023-02-21T01:35:47;1.50;;;1.10;;
17696;SDS011;8967;47.984;7.842;2023-02-21T01:38:32;3.70;;;1.40;;
17696;SDS011;8967;47.984;7.842;2023-02-21T01:41:16;2.80;;;1.42;;
17696;SDS011;8967;47.984;7.842;2023-02-21T01:44:04;2.13;;;1.20;;
17696;SDS011;8967;47.984;7.842;2023-02-21T01:46:51;2.30;;;1.30;;
17696;SDS011;8967;47.984;7.842;2023-02-21T01:49:38;2.73;;;1.70;;
17696;SDS011;8967;47.984;7.842;2023-02-21T01:52:23;2.37;;;1.70;;
17696;SDS011;8967;47.984;7.842;2023-02-21T01:55:08;2.90;;;1.20;;
17696;SDS011;8967;47.984;7.842;2023-02-21T01:57:54;3.80;;;1.60;;
17696;SDS011;8967;47.984;7.842;2023-02-21T02:00:40;5.37;;;1.70;;
17696;SDS011;8967;47.984;7.842;2023-02-21T02:03:26;1.83;;;1.10;;
17696;SDS011;8967;47.984;7.842;2023-02-21T02:06:13;3.07;;;1.43;;
17696;SDS011;8967;47.984;7.842;2023-02-21T02:09:05;2.00;;;1.20;;
17696;SDS011;8967;47.984;7.842;2023-02-21T02:12:01;4.20;;;1.43;;
17696;SDS011;8967;47.984;7.842;2023-02-21T02:17:44;4.33;;;1.30;;
17696;SDS011;8967;47.984;7.842;2023-02-21T02:20:34;1.70;;;1.23;;
17696;SDS011;8967;47.984;7.842;2023-02-21T02:29:59;3.03;;;1.30;;
17696;SDS011;8967;47.984;7.842;2023-02-21T02:32:51;3.10;;;1.43;;
17696;SDS011;8967;47.984;7.842;2023-02-21T02:35:33;2.07;;;1.40;;
17696;SDS011;8967;47.984;7.842;2023-02-21T02:38:10;3.33;;;1.13;;
17696;SDS011;8967;47.984;7.842;2023-02-21T02:40:44;2.40;;;1.40;;
17696;SDS011;8967;47.984;7.842;2023-02-21T02:43:21;2.43;;;1.20;;
17696;SDS011;8967;47.984;7.842;2023-02-21T02:45:53;2.30;;;1.47;;
17696;SDS011;8967;47.984;7.842;2023-02-21T02:48:28;3.03;;;1.47;;
17696;SDS011;8967;47.984;7.842;2023-02-21T02:51:01;2.90;;;1.50;;
17696;SDS011;8967;47.984;7.842;2023-02-21T02:53:31;2.10;;;1.03;;
17696;SDS011;8967;47.984;7.842;2023-02-21T02:56:00;2.63;;;1.50;;
17696;SDS011;8967;47.984;7.842;2023-02-21T02:58:31;2.97;;;1.30;;
17696;SDS011;8967;47.984;7.842;2023-02-21T03:01:05;2.40;;;1.30;;
17696;SDS011;8967;47.984;7.842;2023-02-21T03:03:46;3.33;;;1.23;;
17696;SDS011;8967;47.984;7.842;2023-02-21T03:06:30;2.90;;;1.27;;
17696;SDS011;8967;47.984;7.842;2023-02-21T03:09:08;4.10;;;1.53;;
17696;SDS011;8967;47.984;7.842;2023-02-21T03:11:42;3.60;;;1.03;;
17696;SDS011;8967;47.984;7.842;2023-02-21T03:14:16;3.23;;;1.20;;
17696;SDS011;8967;47.984;7.842;2023-02-21T03:16:49;2.50;;;1.00;;
17696;SDS011;8967;47.984;7.842;2023-02-21T03:19:22;2.00;;;1.20;;
17696;SDS011;8967;47.984;7.842;2023-02-21T03:21:54;1.67;;;1.07;;
17696;SDS011;8967;47.984;7.842;2023-02-21T03:24:23;1.63;;;1.20;;
17696;SDS011;8967;47.984;7.842;2023-02-21T03:26:52;2.20;;;1.27;;
17696;SDS011;8967;47.984;7.842;2023-02-21T03:29:38;3.87;;;1.10;;
17696;SDS011;8967;47.984;7.842;2023-02-21T03:32:06;2.67;;;1.23;;
17696;SDS011;8967;47.984;7.842;2023-02-21T03:34:36;3.33;;;1.33;;
17696;SDS011;8967;47.984;7.842;2023-02-21T03:37:04;2.33;;;1.70;;
17696;SDS011;8967;47.984;7.842;2023-02-21T03:39:34;2.00;;;1.23;;
17696;SDS011;8967;47.984;7.842;2023-02-21T03:42:03;2.50;;;0.97;;
17696;SDS011;8967;47.984;7.842;2023-02-21T03:44:30;1.83;;;1.10;;
17696;SDS011;8967;47.984;7.842;2023-02-21T03:46:58;4.10;;;1.30;;
17696;SDS011;8967;47.984;7.842;2023-02-21T03:49:24;7.93;;;1.83;;
17696;SDS011;8967;47.984;7.842;2023-02-21T03:51:51;2.17;;;1.40;;
17696;SDS011;8967;47.984;7.842;2023-02-21T03:54:20;4.77;;;1.40;;
17696;SDS011;8967;47.984;7.842;2023-02-21T03:56:50;6.03;;;1.23;;
17696;SDS011;8967;47.984;7.842;2023-02-21T03:59:23;4.57;;;1.50;;
17696;SDS011;8967;47.984;7.842;2023-02-21T04:01:51;2.83;;;1.40;;
17696;SDS011;8967;47.984;7.842;2023-02-21T04:04:19;2.03;;;1.23;;
17696;SDS011;8967;47.984;7.842;2023-02-21T04:06:52;2.37;;;1.30;;
17696;SDS011;8967;47.984;7.842;2023-02-21T04:09:20;4.70;;;1.40;;
17696;SDS011;8967;47.984;7.842;2023-02-21T04:11:48;5.07;;;1.73;;
17696;SDS011;8967;47.984;7.842;2023-02-21T04:14:17;1.10;;;1.00;;
17696;SDS011;8967;47.984;7.842;2023-02-21T04:16:44;1.97;;;1.40;;
17696;SDS011;8967;47.984;7.842;2023-02-21T04:19:11;3.20;;;1.53;;
17696;SDS011;8967;47.984;7.842;2023-02-21T04:21:38;1.73;;;1.30;;
17696;SDS011;8967;47.984;7.842;2023-02-21T04:24:06;2.87;;;1.50;;
17696;SDS011;8967;47.984;7.842;2023-02-21T04:26:35;4.10;;;1.47;;
17696;SDS011;8967;47.984;7.842;2023-02-21T04:29:03;1.33;;;1.23;;
17696;SDS011;8967;47.984;7.842;2023-02-21T04:31:31;1.50;;;1.13;;
17696;SDS011;8967;47.984;7.842;2023-02-21T04:34:03;6.87;;;1.40;;
17696;SDS011;8967;47.984;7.842;2023-02-21T04:36:30;1.60;;;1.00;;
17696;SDS011;8967;47.984;7.842;2023-02-21T04:38:58;3.03;;;1.00;;
17696;SDS011;8967;47.984;7.842;2023-02-21T04:41:25;2.40;;;1.20;;
17696;SDS011;8967;47.984;7.842;2023-02-21T04:43:53;2.80;;;1.20;;
17696;SDS011;8967;47.984;7.842;2023-02-21T04:46:20;1.20;;;1.10;;
17696;SDS011;8967;47.984;7.842;2023-02-21T04:48:50;1.97;;;1.43;;
17696;SDS011;8967;47.984;7.842;2023-02-21T04:51:21;4.97;;;1.37;;
17696;SDS011;8967;47.984;7.842;2023-02-21T04:53:49;3.23;;;1.40;;
17696;SDS011;8967;47.984;7.842;2023-02-21T04:56:17;1.87;;;1.27;;
17696;SDS011;8967;47.984;7.842;2023-02-21T04:58:46;4.60;;;1.40;;
17696;SDS011;8967;47.984;7.842;2023-02-21T05:01:15;2.87;;;1.30;;
17696;SDS011;8967;47.984;7.842;2023-02-21T05:03:43;2.37;;;1.30;;
17696;SDS011;8967;47.984;7.842;2023-02-21T05:06:09;4.80;;;1.63;;
17696;SDS011;8967;47.984;7.842;2023-02-21T05:08:41;2.53;;;1.33;;
17696;SDS011;8967;47.984;7.842;2023-02-21T05:11:11;1.70;;;1.40;;
17696;SDS011;8967;47.984;7.842;2023-02-21T05:13:38;4.87;;;1.60;;
17696;SDS011;8967;47.984;7.842;2023-02-21T05:16:05;2.27;;;1.40;;
17696;SDS011;8967;47.984;7.842;2023-02-21T05:18:33;3.50;;;1.40;;
17696;SDS011;8967;47.984;7.842;2023-02-21T05:21:02;1.90;;;1.70;;
17696;SDS011;8967;47.984;7.842;2023-02-21T05:23:29;3.27;;;2.50;;
17696;SDS011;8967;47.984;7.842;2023-02-21T05:25:59;5.33;;;2.17;;
17696;SDS011;8967;47.984;7.842;2023-02-21T05:28:26;2.10;;;1.40;;
17696;SDS011;8967;47.984;7.842;2023-02-21T05:30:56;2.70;;;1.50;;
17696;SDS011;8967;47.984;7.842;2023-02-21T05:33:23;3.77;;;1.63;;
17696;SDS011;8967;47.984;7.842;2023-02-21T05:35:52;5.13;;;1.90;;
17696;SDS011;8967;47.984;7.842;2023-02-21T05:38:20;5.93;;;2.27;;
17696;SDS011;8967;47.984;7.842;2023-02-21T05:40:50;6.30;;;2.53;;
17696;SDS011;8967;47.984;7.842;2023-02-21T05:43:18;4.60;;;1.67;;
17696;SDS011;8967;47.984;7.842;2023-02-21T05:45:45;4.70;;;1.80;;
17696;SDS011;8967;47.984;7.842;2023-02-21T05:48:14;8.00;;;1.80;;
17696;SDS011;8967;47.984;7.842;2023-02-21T05:50:43;2.67;;;1.70;;
17696;SDS011;8967;47.984;7.842;2023-02-21T05:53:14;4.27;;;1.60;;
17696;SDS011;8967;47.984;7.842;2023-02-21T05:55:41;2.77;;;1.70;;
17696;SDS011;8967;47.984;7.842;2023-02-21T05:58:07;3.20;;;1.70;;
17696;SDS011;8967;47.984;7.842;2023-02-21T06:00:34;1.43;;;1.33;;
17696;SDS011;8967;47.984;7.842;2023-02-21T06:03:01;6.47;;;1.57;;
17696;SDS011;8967;47.984;7.842;2023-02-21T06:05:28;4.80;;;1.40;;
17696;SDS011;8967;47.984;7.842;2023-02-21T06:07:55;5.53;;;1.43;;
17696;SDS011;8967;47.984;7.842;2023-02-21T06:10:23;5.80;;;1.80;;
17696;SDS011;8967;47.984;7.842;2023-02-21T06:12:50;5.93;;;1.60;;
17696;SDS011;8967;47.984;7.842;2023-02-21T06:15:17;3.97;;;1.87;;
17696;SDS011;8967;47.984;7.842;2023-02-21T06:17:44;4.13;;;1.70;;
17696;SDS011;8967;47.984;7.842;2023-02-21T06:20:12;4.97;;;1.63;;
17696;SDS011;8967;47.984;7.842;2023-02-21T06:22:41;4.70;;;1.57;;
17696;SDS011;8967;47.984;7.842;2023-02-21T06:25:08;5.43;;;1.53;;
17696;SDS011;8967;47.984;7.842;2023-02-21T06:27:36;3.70;;;1.50;;
17696;SDS011;8967;47.984;7.842;2023-02-21T06:30:06;4.03;;;1.73;;
17696;SDS011;8967;47.984;7.842;2023-02-21T06:32:34;5.40;;;2.20;;
17696;SDS011;8967;47.984;7.842;2023-02-21T06:35:01;6.43;;;2.10;;
17696;SDS011;8967;47.984;7.842;2023-02-21T06:37:28;3.30;;;1.80;;
17696;SDS011;8967;47.984;7.842;2023-02-21T06:39:55;4.53;;;2.27;;
17696;SDS011;8967;47.984;7.842;2023-02-21T06:42:22;1.93;;;1.63;;
17696;SDS011;8967;47.984;7.842;2023-02-21T06:44:52;10.13;;;2.30;;
17696;SDS011;8967;47.984;7.842;2023-02-21T06:47:19;6.37;;;1.90;;
17696;SDS011;8967;47.984;7.842;2023-02-21T06:49:48;8.77;;;2.43;;
17696;SDS011;8967;47.984;7.842;2023-02-21T06:52:15;4.47;;;2.10;;
17696;SDS011;8967;47.984;7.842;2023-02-21T06:54:42;5.20;;;2.10;;
17696;SDS011;8967;47.984;7.842;2023-02-21T06:57:10;3.00;;;2.07;;
17696;SDS011;8967;47.984;7.842;2023-02-21T06:59:37;4.13;;;1.97;;
17696;SDS011;8967;47.984;7.842;2023-02-21T07:02:09;4.13;;;1.90;;
17696;SDS011;8967;47.984;7.842;2023-02-21T07:04:42;3.23;;;1.63;;
17696;SDS011;8967;47.984;7.842;2023-02-21T07:07:09;4.37;;;2.00;;
17696;SDS011;8967;47.984;7.842;2023-02-21T07:09:36;5.80;;;2.10;;
17696;SDS011;8967;47.984;7.842;2023-02-21T07:12:03;5.60;;;2.00;;
17696;SDS011;8967;47.984;7.842;2023-02-21T07:14:30;2.50;;;1.60;;
17696;SDS011;8967;47.984;7.842;2023-02-21T07:16:57;1.90;;;1.70;;
17696;SDS011;8967;47.984;7.842;2023-02-21T07:19:25;5.57;;;2.47;;
17696;SDS011;8967;47.984;7.842;2023-02-21T07:21:52;3.97;;;2.43;;
17696;SDS011;8967;47.984;7.842;2023-02-21T07:24:19;6.10;;;2.80;;
17696;SDS011;8967;47.984;7.842;2023-02-21T07:26:46;6.50;;;2.60;;
17696;SDS011;8967;47.984;7.842;2023-02-21T07:29:13;4.97;;;2.07;;
17696;SDS011;8967;47.984;7.842;2023-02-21T07:31:41;4.53;;;2.20;;
17696;SDS011;8967;47.984;7.842;2023-02-21T07:34:08;4.83;;;2.17;;
17696;SDS011;8967;47.984;7.842;2023-02-21T07:36:37;2.50;;;2.10;;
17696;SDS011;8967;47.984;7.842;2023-02-21T07:39:04;4.97;;;2.27;;
17696;SDS011;8967;47.984;7.842;2023-02-21T07:41:31;7.00;;;2.30;;
17696;SDS011;8967;47.984;7.842;2023-02-21T07:44:00;3.17;;;2.07;;
17696;SDS011;8967;47.984;7.842;2023-02-21T07:46:27;5.17;;;2.23;;
17696;SDS011;8967;47.984;7.842;2023-02-21T07:48:54;4.70;;;2.43;;
17696;SDS011;8967;47.984;7.842;2023-02-21T07:51:22;3.57;;;2.33;;
17696;SDS011;8967;47.984;7.842;2023-02-21T07:53:53;5.97;;;2.50;;
17696;SDS011;8967;47.984;7.842;2023-02-21T07:56:20;7.97;;;2.80;;
17696;SDS011;8967;47.984;7.842;2023-02-21T07:58:56;3.97;;;2.47;;
17696;SDS011;8967;47.984;7.842;2023-02-21T08:01:23;6.00;;;2.93;;
17696;SDS011;8967;47.984;7.842;2023-02-21T08:03:51;5.17;;;2.60;;
17696;SDS011;8967;47.984;7.842;2023-02-21T08:06:18;6.13;;;2.73;;
17696;SDS011;8967;47.984;7.842;2023-02-21T08:08:45;5.07;;;2.40;;
17696;SDS011;8967;47.984;7.842;2023-02-21T08:11:14;4.90;;;2.30;;
17696;SDS011;8967;47.984;7.842;2023-02-21T08:13:41;4.63;;;2.40;;
17696;SDS011;8967;47.984;7.842;2023-02-21T08:16:07;4.87;;;2.10;;
17696;SDS011;8967;47.984;7.842;2023-02-21T08:18:34;7.50;;;2.50;;
17696;SDS011;8967;47.984;7.842;2023-02-21T08:21:06;4.90;;;2.30;;
17696;SDS011;8967;47.984;7.842;2023-02-21T08:23:35;9.30;;;2.80;;
17696;SDS011;8967;47.984;7.842;2023-02-21T08:26:02;5.33;;;2.60;;
17696;SDS011;8967;47.984;7.842;2023-02-21T08:28:30;7.27;;;2.60;;
17696;SDS011;8967;47.984;7.842;2023-02-21T08:30:57;5.37;;;2.70;;
17696;SDS011;8967;47.984;7.842;2023-02-21T08:33:26;3.83;;;2.10;;
17696;SDS011;8967;47.984;7.842;2023-02-21T08:35:54;9.77;;;3.47;;
17696;SDS011;8967;47.984;7.842;2023-02-21T08:38:21;3.23;;;2.50;;
17696;SDS011;8967;47.984;7.842;2023-02-21T08:40:48;4.13;;;2.77;;
17696;SDS011;8967;47.984;7.842;2023-02-21T08:43:15;3.93;;;2.43;;
17696;SDS011;8967;47.984;7.842;2023-02-21T08:45:43;3.40;;;2.20;;
17696;SDS011;8967;47.984;7.842;2023-02-21T08:48:13;6.33;;;2.90;;
17696;SDS011;8967;47.984;7.842;2023-02-21T08:50:40;5.17;;;2.80;;
17696;SDS011;8967;47.984;7.842;2023-02-21T08:53:07;7.10;;;2.80;;
17696;SDS011;8967;47.984;7.842;2023-02-21T08:55:36;7.10;;;3.10;;
17696;SDS011;8967;47.984;7.842;2023-02-21T08:58:03;4.50;;;2.60;;
17696;SDS011;8967;47.984;7.842;2023-02-21T09:00:30;4.60;;;2.30;;
17696;SDS011;8967;47.984;7.842;2023-02-21T09:02:59;4.27;;;2.20;;
17696;SDS011;8967;47.984;7.842;2023-02-21T09:05:29;3.83;;;1.80;;
17696;SDS011;8967;47.984;7.842;2023-02-21T09:07:57;3.10;;;2.08;;
17696;SDS011;8967;47.984;7.842;2023-02-21T09:10:25;2.77;;;2.10;;
17696;SDS011;8967;47.984;7.842;2023-02-21T09:12:53;3.57;;;2.00;;
17696;SDS011;8967;47.984;7.842;2023-02-21T09:15:20;2.93;;;1.90;;
17696;SDS011;8967;47.984;7.842;2023-02-21T09:17:47;2.40;;;1.80;;
17696;SDS011;8967;47.984;7.842;2023-02-21T09:20:17;2.53;;;1.90;;
17696;SDS011;8967;47.984;7.842;2023-02-21T09:22:45;2.38;;;1.90;;
17696;SDS011;8967;47.984;7.842;2023-02-21T09:25:16;2.93;;;1.80;;
17696;SDS011;8967;47.984;7.842;2023-02-21T09:27:44;5.32;;;1.90;;
17696;SDS011;8967;47.984;7.842;2023-02-21T09:30:12;2.13;;;1.67;;
17696;SDS011;8967;47.984;7.842;2023-02-21T09:32:41;4.60;;;1.98;;
17696;SDS011;8967;47.984;7.842;2023-02-21T09:35:08;6.95;;;2.38;;
17696;SDS011;8967;47.984;7.842;2023-02-21T09:37:39;3.42;;;2.05;;
17696;SDS011;8967;47.984;7.842;2023-02-21T09:40:10;3.28;;;2.28;;
17696;SDS011;8967;47.984;7.842;2023-02-21T09:42:42;6.53;;;2.75;;
17696;SDS011;8967;47.984;7.842;2023-02-21T09:45:13;10.55;;;3.53;;
17696;SDS011;8967;47.984;7.842;2023-02-21T09:47:41;8.45;;;3.17;;
17696;SDS011;8967;47.984;7.842;2023-02-21T09:50:16;11.00;;;3.60;;
17696;SDS011;8967;47.984;7.842;2023-02-21T09:52:46;7.30;;;3.97;;
17696;SDS011;8967;47.984;7.842;2023-02-21T09:55:18;9.05;;;4.00;;
17696;SDS011;8967;47.984;7.842;2023-02-21T09:57:52;11.98;;;4.10;;
17696;SDS011;8967;47.984;7.842;2023-02-21T10:00:20;5.65;;;3.35;;
17696;SDS011;8967;47.984;7.842;2023-02-21T10:02:55;6.63;;;3.80;;
17696;SDS011;8967;47.984;7.842;2023-02-21T10:05:32;8.85;;;4.50;;
17696;SDS011;8967;47.984;7.842;2023-02-21T10:08:10;6.03;;;4.05;;
17696;SDS011;8967;47.984;7.842;2023-02-21T10:10:45;12.68;;;4.43;;
17696;SDS011;8967;47.984;7.842;2023-02-21T10:13:21;9.27;;;3.75;;
17696;SDS011;8967;47.984;7.842;2023-02-21T10:15:57;8.15;;;4.28;;
17696;SDS011;8967;47.984;7.842;2023-02-21T10:18:31;8.32;;;3.97;;
17696;SDS011;8967;47.984;7.842;2023-02-21T10:21:07;6.05;;;3.53;;
17696;SDS011;8967;47.984;7.842;2023-02-21T10:23:41;6.78;;;3.60;;
17696;SDS011;8967;47.984;7.842;2023-02-21T10:26:18;7.40;;;4.00;;
17696;SDS011;8967;47.984;7.842;2023-02-21T10:28:48;11.18;;;3.63;;
17696;SDS011;8967;47.984;7.842;2023-02-21T10:31:18;10.20;;;4.90;;
17696;SDS011;8967;47.984;7.842;2023-02-21T10:34:06;10.50;;;4.40;;
17696;SDS011;8967;47.984;7.842;2023-02-21T10:36:41;5.38;;;3.63;;
17696;SDS011;8967;47.984;7.842;2023-02-21T10:39:11;10.63;;;4.22;;
17696;SDS011;8967;47.984;7.842;2023-02-21T10:41:42;5.80;;;3.30;;
17696;SDS011;8967;47.984;7.842;2023-02-21T10:44:09;5.30;;;3.47;;
17696;SDS011;8967;47.984;7.842;2023-02-21T10:46:42;6.10;;;3.90;;
17696;SDS011;8967;47.984;7.842;2023-02-21T10:49:16;5.47;;;3.45;;
17696;SDS011;8967;47.984;7.842;2023-02-21T10:51:47;9.77;;;3.88;;
17696;SDS011;8967;47.984;7.842;2023-02-21T10:54:33;8.63;;;3.50;;
17696;SDS011;8967;47.984;7.842;2023-02-21T10:57:00;6.70;;;3.58;;
17696;SDS011;8967;47.984;7.842;2023-02-21T10:59:31;8.27;;;3.92;;
17696;SDS011;8967;47.984;7.842;2023-02-21T11:02:00;11.20;;;3.95;;
17696;SDS011;8967;47.984;7.842;2023-02-21T11:04:29;6.40;;;2.85;;
17696;SDS011;8967;47.984;7.842;2023-02-21T11:07:01;16.33;;;8.88;;
17696;SDS011;8967;47.984;7.842;2023-02-21T11:09:34;22.23;;;13.48;;
17696;SDS011;8967;47.984;7.842;2023-02-21T11:12:04;10.07;;;4.57;;
17696;SDS011;8967;47.984;7.842;2023-02-21T11:14:44;8.93;;;5.13;;
17696;SDS011;8967;47.984;7.842;2023-02-21T11:17:28;9.52;;;4.75;;
17696;SDS011;8967;47.984;7.842;2023-02-21T11:19:57;6.05;;;3.63;;
17696;SDS011;8967;47.984;7.842;2023-02-21T11:22:35;6.97;;;3.90;;
17696;SDS011;8967;47.984;7.842;2023-02-21T11:25:05;6.07;;;2.95;;
17696;SDS011;8967;47.984;7.842;2023-02-21T11:27:34;8.50;;;3.83;;
17696;SDS011;8967;47.984;7.842;2023-02-21T11:30:03;6.05;;;3.33;;
17696;SDS011;8967;47.984;7.842;2023-02-21T11:32:40;6.68;;;2.70;;
17696;SDS011;8967;47.984;7.842;2023-02-21T11:35:20;5.15;;;2.65;;
17696;SDS011;8967;47.984;7.842;2023-02-21T11:37:52;5.68;;;2.97;;
17696;SDS011;8967;47.984;7.842;2023-02-21T11:40:24;6.70;;;3.20;;
17696;SDS011;8967;47.984;7.842;2023-02-21T11:45:46;6.72;;;2.95;;
17696;SDS011;8967;47.984;7.842;2023-02-21T11:48:23;5.15;;;2.80;;
17696;SDS011;8967;47.984;7.842;2023-02-21T11:50:57;5.25;;;3.10;;
17696;SDS011;8967;47.984;7.842;2023-02-21T11:53:30;6.50;;;3.22;;
17696;SDS011;8967;47.984;7.842;2023-02-21T11:56:05;10.63;;;4.18;;
17696;SDS011;8967;47.984;7.842;2023-02-21T11:58:56;6.95;;;3.85;;
17696;SDS011;8967;47.984;7.842;2023-02-21T12:01:37;6.95;;;3.47;;
17696;SDS011;8967;47.984;7.842;2023-02-21T12:07:11;6.85;;;3.53;;
17696;SDS011;8967;47.984;7.842;2023-02-21T12:09:44;4.93;;;3.28;;
17696;SDS011;8967;47.984;7.842;2023-02-21T12:12:22;7.28;;;3.60;;
17696;SDS011;8967;47.984;7.842;2023-02-21T12:15:00;4.95;;;3.13;;
17696;SDS011;8967;47.984;7.842;2023-02-21T12:17:39;4.95;;;2.78;;
17696;SDS011;8967;47.984;7.842;2023-02-21T12:20:17;4.88;;;3.30;;
17696;SDS011;8967;47.984;7.842;2023-02-21T12:22:54;4.53;;;2.83;;
17696;SDS011;8967;47.984;7.842;2023-02-21T12:25:32;4.35;;;2.75;;
17696;SDS011;8967;47.984;7.842;2023-02-21T12:28:12;3.53;;;2.58;;
17696;SDS011;8967;47.984;7.842;2023-02-21T12:30:52;5.30;;;2.65;;
17696;SDS011;8967;47.984;7.842;2023-02-21T12:33:32;5.28;;;2.67;;
17696;SDS011;8967;47.984;7.842;2023-02-21T12:36:09;3.42;;;2.70;;
17696;SDS011;8967;47.984;7.842;2023-02-21T12:38:56;3.53;;;2.60;;
17696;SDS011;8967;47.984;7.842;2023-02-21T12:41:48;8.65;;;2.83;;
17696;SDS011;8967;47.984;7.842;2023-02-21T12:44:44;3.15;;;2.45;;
17696;SDS011;8967;47.984;7.842;2023-02-21T12:47:25;4.57;;;2.20;;
17696;SDS011;8967;47.984;7.842;2023-02-21T12:49:58;3.53;;;2.33;;
17696;SDS011;8967;47.984;7.842;2023-02-21T12:52:31;3.67;;;2.28;;
17696;SDS011;8967;47.984;7.842;2023-02-21T12:55:11;3.42;;;2.28;;
17696;SDS011;8967;47.984;7.842;2023-02-21T12:57:44;5.65;;;2.40;;
17696;SDS011;8967;47.984;7.842;2023-02-21T13:00:18;4.40;;;2.10;;
17696;SDS011;8967;47.984;7.842;2023-02-21T13:02:51;4.80;;;1.90;;
17696;SDS011;8967;47.984;7.842;2023-02-21T13:05:30;4.00;;;1.90;;
17696;SDS011;8967;47.984;7.842;2023-02-21T13:08:06;4.60;;;1.67;;
17696;SDS011;8967;47.984;7.842;2023-02-21T13:10:44;3.78;;;1.98;;
17696;SDS011;8967;47.984;7.842;2023-02-21T13:13:17;5.13;;;2.33;;
17696;SDS011;8967;47.984;7.842;2023-02-21T13:15:49;2.85;;;1.52;;
17696;SDS011;8967;47.984;7.842;2023-02-21T13:18:18;3.45;;;1.38;;
17696;SDS011;8967;47.984;7.842;2023-02-21T13:20:51;3.75;;;1.80;;
17696;SDS011;8967;47.984;7.842;2023-02-21T13:26:31;2.08;;;1.60;;
17696;SDS011;8967;47.984;7.842;2023-02-21T13:29:12;4.45;;;1.80;;
17696;SDS011;8967;47.984;7.842;2023-02-21T13:31:44;3.05;;;1.80;;
17696;SDS011;8967;47.984;7.842;2023-02-21T13:34:12;4.25;;;1.83;;
17696;SDS011;8967;47.984;7.842;2023-02-21T13:36:48;3.00;;;2.05;;
17696;SDS011;8967;47.984;7.842;2023-02-21T13:39:17;2.70;;;1.85;;
17696;SDS011;8967;47.984;7.842;2023-02-21T13:41:47;3.53;;;2.00;;
17696;SDS011;8967;47.984;7.842;2023-02-21T13:44:18;4.97;;;2.20;;
17696;SDS011;8967;47.984;7.842;2023-02-21T13:47:01;2.25;;;1.83;;
17696;SDS011;8967;47.984;7.842;2023-02-21T13:49:45;3.03;;;1.70;;
17696;SDS011;8967;47.984;7.842;2023-02-21T13:52:26;1.95;;;1.70;;
17696;SDS011;8967;47.984;7.842;2023-02-21T13:55:08;3.38;;;1.65;;
17696;SDS011;8967;47.984;7.842;2023-02-21T13:57:46;4.25;;;1.83;;
17696;SDS011;8967;47.984;7.842;2023-02-21T14:09:04;3.75;;;2.13;;
17696;SDS011;8967;47.984;7.842;2023-02-21T14:11:42;3.83;;;2.10;;
17696;SDS011;8967;47.984;7.842;2023-02-21T14:14:20;7.47;;;2.28;;
17696;SDS011;8967;47.984;7.842;2023-02-21T14:16:51;3.92;;;1.90;;
17696;SDS011;8967;47.984;7.842;2023-02-21T14:19:26;3.25;;;2.03;;
17696;SDS011;8967;47.984;7.842;2023-02-21T14:22:01;3.58;;;1.67;;
17696;SDS011;8967;47.984;7.842;2023-02-21T14:24:33;2.97;;;1.60;;
17696;SDS011;8967;47.984;7.842;2023-02-21T14:27:29;4.45;;;1.65;;
17696;SDS011;8967;47.984;7.842;2023-02-21T14:30:22;4.75;;;2.00;;
17696;SDS011;8967;47.984;7.842;2023-02-21T14:32:52;2.60;;;1.35;;
17696;SDS011;8967;47.984;7.842;2023-02-21T14:35:28;3.22;;;2.03;;
17696;SDS011;8967;47.984;7.842;2023-02-21T14:37:59;1.67;;;1.58;;
17696;SDS011;8967;47.984;7.842;2023-02-21T14:40:30;5.80;;;2.33;;
17696;SDS011;8967;47.984;7.842;2023-02-21T14:43:20;6.38;;;2.20;;
17696;SDS011;8967;47.984;7.842;2023-02-21T14:45:59;5.43;;;2.10;;
17696;SDS011;8967;47.984;7.842;2023-02-21T14:48:42;2.92;;;1.75;;
17696;SDS011;8967;47.984;7.842;2023-02-21T14:51:36;4.07;;;1.98;;
17696;SDS011;8967;47.984;7.842;2023-02-21T14:54:25;3.05;;;1.70;;
17696;SDS011;8967;47.984;7.842;2023-02-21T14:57:25;3.15;;;1.92;;
17696;SDS011;8967;47.984;7.842;2023-02-21T15:00:13;3.88;;;1.85;;
17696;SDS011;8967;47.984;7.842;2023-02-21T15:02:46;3.10;;;2.38;;
17696;SDS011;8967;47.984;7.842;2023-02-21T15:05:19;4.32;;;2.15;;
17696;SDS011;8967;47.984;7.842;2023-02-21T15:07:56;3.83;;;2.08;;
17696;SDS011;8967;47.984;7.842;2023-02-21T15:10:28;3.47;;;2.00;;
17696;SDS011;8967;47.984;7.842;2023-02-21T15:12:57;1.73;;;1.48;;
17696;SDS011;8967;47.984;7.842;2023-02-21T15:15:27;6.78;;;2.40;;
17696;SDS011;8967;47.984;7.842;2023-02-21T15:18:03;3.28;;;2.35;;
17696;SDS011;8967;47.984;7.842;2023-02-21T15:20:35;3.75;;;2.17;;
17696;SDS011;8967;47.984;7.842;2023-02-21T15:23:12;2.38;;;2.17;;
17696;SDS011;8967;47.984;7.842;2023-02-21T15:25:40;5.25;;;2.20;;
17696;SDS011;8967;47.984;7.842;2023-02-21T15:28:17;2.67;;;2.10;;
17696;SDS011;8967;47.984;7.842;2023-02-21T15:30:54;3.70;;;2.15;;
17696;SDS011;8967;47.984;7.842;2023-02-21T15:33:26;4.30;;;2.10;;
17696;SDS011;8967;47.984;7.842;2023-02-21T15:35:56;4.80;;;2.17;;
17696;SDS011;8967;47.984;7.842;2023-02-21T15:38:29;3.25;;;2.20;;
17696;SDS011;8967;47.984;7.842;2023-02-21T15:41:00;3.45;;;1.80;;
17696;SDS011;8967;47.984;7.842;2023-02-21T15:43:33;7.25;;;2.00;;
17696;SDS011;8967;47.984;7.842;2023-02-21T15:46:10;5.50;;;2.20;;
17696;SDS011;8967;47.984;7.842;2023-02-21T15:48:39;5.82;;;2.20;;
17696;SDS011;8967;47.984;7.842;2023-02-21T15:51:07;4.63;;;2.20;;
17696;SDS011;8967;47.984;7.842;2023-02-21T15:53:37;5.43;;;2.10;;
17696;SDS011;8967;47.984;7.842;2023-02-21T15:56:15;4.45;;;1.48;;
17696;SDS011;8967;47.984;7.842;2023-02-21T16:01:35;4.55;;;1.60;;
17696;SDS011;8967;47.984;7.842;2023-02-21T16:06:52;2.00;;;1.30;;
17696;SDS011;8967;47.984;7.842;2023-02-21T16:09:24;1.90;;;1.70;;
17696;SDS011;8967;47.984;7.842;2023-02-21T16:11:55;6.40;;;1.48;;
17696;SDS011;8967;47.984;7.842;2023-02-21T16:14:28;4.07;;;1.63;;